sensor_id;sensor_type;location;lat;lon;timestamp;pressure;altitude;pressure_sealevel;temperature;humidity
15267;BME280;7735;49.144;8.668;2023-05-23T00:01:45;100001.19;;;20.79;64.17
15267;BME280;7735;49.144;8.668;2023-05-23T00:04:12;100000.44;;;20.77;64.19
15267;BME280;7735;49.144;8.668;2023-05-23T00:06:42;99995.13;;;20.77;64.22
15267;BME280;7735;49.144;8.668;2023-05-23T00:09:11;99997.78;;;20.77;64.25
15267;BME280;7735;49.144;8.668;2023-05-23T00:11:38;99999.56;;;20.76;64.30
15267;BME280;7735;49.144;8.668;2023-05-23T00:14:09;100002.13;;;20.78;64.46
15267;BME280;7735;49.144;8.668;2023-05-23T00:16:38;100003.97;;;20.76;64.34
15267;BME280;7735;49.144;8.668;2023-05-23T00:19:05;100005.09;;;20.72;64.55
15267;BME280;7735;49.144;8.668;2023-05-23T00:21:32;99999.13;;;20.68;64.39
15267;BME280;7735;49.144;8.668;2023-05-23T00:24:00;100013.34;;;20.65;64.69
15267;BME280;7735;49.144;8.668;2023-05-23T00:26:28;100009.91;;;20.63;64.70
15267;BME280;7735;49.144;8.668;2023-05-23T00:28:56;100019.72;;;20.61;64.88
15267;BME280;7735;49.144;8.668;2023-05-23T00:31:23;100008.38;;;20.59;64.96
15267;BME280;7735;49.144;8.668;2023-05-23T00:33:49;100015.38;;;20.60;64.98
15267;BME280;7735;49.144;8.668;2023-05-23T00:36:16;100011.06;;;20.58;64.97
15267;BME280;7735;49.144;8.668;2023-05-23T00:38:43;100020.03;;;20.55;64.97
15267;BME280;7735;49.144;8.668;2023-05-23T00:41:12;100012.19;;;20.54;65.31
15267;BME280;7735;49.144;8.668;2023-05-23T00:43:38;100009.63;;;20.52;65.19
15267;BME280;7735;49.144;8.668;2023-05-23T00:46:06;100014.91;;;20.52;65.04
15267;BME280;7735;49.144;8.668;2023-05-23T00:48:33;100007.84;;;20.53;65.15
15267;BME280;7735;49.144;8.668;2023-05-23T00:51:00;100014.06;;;20.52;65.03
15267;BME280;7735;49.144;8.668;2023-05-23T00:53:27;100010.63;;;20.50;65.14
15267;BME280;7735;49.144;8.668;2023-05-23T00:55:54;100012.34;;;20.51;65.27
15267;BME280;7735;49.144;8.668;2023-05-23T00:58:22;100018.50;;;20.51;65.20
15267;BME280;7735;49.144;8.668;2023-05-23T01:00:50;100020.34;;;20.49;65.34
15267;BME280;7735;49.144;8.668;2023-05-23T01:03:18;100019.66;;;20.46;65.19
15267;BME280;7735;49.144;8.668;2023-05-23T01:05:45;100013.50;;;20.45;65.30
15267;BME280;7735;49.144;8.668;2023-05-23T01:08:12;100015.28;;;20.45;65.32
15267;BME280;7735;49.144;8.668;2023-05-23T01:10:40;100012.78;;;20.42;65.29
15267;BME280;7735;49.144;8.668;2023-05-23T01:13:14;100019.88;;;20.41;65.47
15267;BME280;7735;49.144;8.668;2023-05-23T01:15:49;100024.34;;;20.39;65.31
15267;BME280;7735;49.144;8.668;2023-05-23T01:18:23;100017.53;;;20.35;65.15
15267;BME280;7735;49.144;8.668;2023-05-23T01:20:54;100017.69;;;20.32;65.06
15267;BME280;7735;49.144;8.668;2023-05-23T01:24:01;100015.94;;;20.31;65.30
15267;BME280;7735;49.144;8.668;2023-05-23T01:26:32;100019.69;;;20.27;65.43
15267;BME280;7735;49.144;8.668;2023-05-23T01:29:11;100013.63;;;20.25;65.50
15267;BME280;7735;49.144;8.668;2023-05-23T01:31:42;100018.91;;;20.25;65.63
15267;BME280;7735;49.144;8.668;2023-05-23T01:34:11;100019.69;;;20.27;65.63
15267;BME280;7735;49.144;8.668;2023-05-23T01:36:40;100026.69;;;20.28;65.59
15267;BME280;7735;49.144;8.668;2023-05-23T01:39:08;100029.25;;;20.29;65.53
15267;BME280;7735;49.144;8.668;2023-05-23T01:41:34;100032.75;;;20.30;65.44
15267;BME280;7735;49.144;8.668;2023-05-23T01:44:02;100030.09;;;20.30;65.60
15267;BME280;7735;49.144;8.668;2023-05-23T01:46:31;100027.44;;;20.30;65.70
15267;BME280;7735;49.144;8.668;2023-05-23T01:49:00;100038.97;;;20.29;65.62
15267;BME280;7735;49.144;8.668;2023-05-23T01:51:26;100034.44;;;20.31;65.55
15267;BME280;7735;49.144;8.668;2023-05-23T01:53:53;100037.09;;;20.31;65.53
15267;BME280;7735;49.144;8.668;2023-05-23T01:56:20;100052.19;;;20.29;65.64
15267;BME280;7735;49.144;8.668;2023-05-23T01:58:47;100053.13;;;20.28;65.66
15267;BME280;7735;49.144;8.668;2023-05-23T02:01:14;100044.41;;;20.26;65.64
15267;BME280;7735;49.144;8.668;2023-05-23T02:03:42;100051.41;;;20.27;65.90
15267;BME280;7735;49.144;8.668;2023-05-23T02:06:12;100042.72;;;20.25;65.77
15267;BME280;7735;49.144;8.668;2023-05-23T02:08:38;100044.41;;;20.26;65.64
15267;BME280;7735;49.144;8.668;2023-05-23T02:11:05;100040.16;;;20.23;65.89
15267;BME280;7735;49.144;8.668;2023-05-23T02:13:33;100047.13;;;20.24;65.73
15267;BME280;7735;49.144;8.668;2023-05-23T02:15:59;100050.78;;;20.22;65.88
15267;BME280;7735;49.144;8.668;2023-05-23T02:18:26;100048.97;;;20.22;65.90
15267;BME280;7735;49.144;8.668;2023-05-23T02:20:54;100051.56;;;20.24;65.79
15267;BME280;7735;49.144;8.668;2023-05-23T02:23:21;100046.28;;;20.24;65.82
15267;BME280;7735;49.144;8.668;2023-05-23T02:25:48;100046.28;;;20.24;65.74
15267;BME280;7735;49.144;8.668;2023-05-23T02:28:14;100046.28;;;20.24;65.71
15267;BME280;7735;49.144;8.668;2023-05-23T02:30:41;100052.47;;;20.23;65.77
15267;BME280;7735;49.144;8.668;2023-05-23T02:33:07;100043.63;;;20.24;65.60
15267;BME280;7735;49.144;8.668;2023-05-23T02:35:35;100051.56;;;20.24;65.71
15267;BME280;7735;49.144;8.668;2023-05-23T02:38:03;100052.56;;;20.21;65.69
15267;BME280;7735;49.144;8.668;2023-05-23T02:40:29;100049.13;;;20.19;65.63
15267;BME280;7735;49.144;8.668;2023-05-23T02:42:56;100056.28;;;20.17;65.69
15267;BME280;7735;49.144;8.668;2023-05-23T02:45:23;100060.72;;;20.17;65.72
15267;BME280;7735;49.144;8.668;2023-05-23T02:47:49;100063.44;;;20.15;65.83
15267;BME280;7735;49.144;8.668;2023-05-23T02:50:16;100059.06;;;20.14;65.72
15267;BME280;7735;49.144;8.668;2023-05-23T02:52:43;100066.16;;;20.14;65.82
15267;BME280;7735;49.144;8.668;2023-05-23T02:55:11;100063.59;;;20.12;65.71
15267;BME280;7735;49.144;8.668;2023-05-23T02:57:37;100060.25;;;20.08;65.62
15267;BME280;7735;49.144;8.668;2023-05-23T03:00:06;100057.75;;;20.05;65.77
15267;BME280;7735;49.144;8.668;2023-05-23T03:02:34;100061.47;;;20.01;65.99
15267;BME280;7735;49.144;8.668;2023-05-23T03:05:00;100058.03;;;19.99;66.05
15267;BME280;7735;49.144;8.668;2023-05-23T03:07:28;100064.38;;;19.95;65.97
15267;BME280;7735;49.144;8.668;2023-05-23T03:09:54;100058.41;;;19.92;66.11
15267;BME280;7735;49.144;8.668;2023-05-23T03:12:22;100054.91;;;19.91;66.15
15267;BME280;7735;49.144;8.668;2023-05-23T03:14:49;100056.78;;;19.89;66.27
15267;BME280;7735;49.144;8.668;2023-05-23T03:17:16;100060.34;;;19.88;66.27
15267;BME280;7735;49.144;8.668;2023-05-23T03:19:42;100065.63;;;19.88;66.18
15267;BME280;7735;49.144;8.668;2023-05-23T03:22:09;100069.19;;;19.87;66.09
15267;BME280;7735;49.144;8.668;2023-05-23T03:24:36;100067.34;;;19.89;66.14
15267;BME280;7735;49.144;8.668;2023-05-23T03:27:03;100065.63;;;19.88;66.23
15267;BME280;7735;49.144;8.668;2023-05-23T03:29:31;100069.13;;;19.89;66.21
15267;BME280;7735;49.144;8.668;2023-05-23T03:31:58;100064.69;;;19.89;66.21
15267;BME280;7735;49.144;8.668;2023-05-23T03:34:24;100074.34;;;19.90;66.35
15267;BME280;7735;49.144;8.668;2023-05-23T03:36:51;100078.69;;;19.91;66.36
15267;BME280;7735;49.144;8.668;2023-05-23T03:39:18;100076.97;;;19.90;66.50
15267;BME280;7735;49.144;8.668;2023-05-23T03:41:45;100077.75;;;19.92;66.54
15267;BME280;7735;49.144;8.668;2023-05-23T03:44:11;100080.25;;;19.95;66.39
15267;BME280;7735;49.144;8.668;2023-05-23T03:46:40;100083.75;;;19.96;66.36
15267;BME280;7735;49.144;8.668;2023-05-23T03:49:07;100087.25;;;19.96;66.55
15267;BME280;7735;49.144;8.668;2023-05-23T03:51:33;100079.31;;;19.96;66.46
15267;BME280;7735;49.144;8.668;2023-05-23T03:54:00;100092.53;;;19.96;66.45
15267;BME280;7735;49.144;8.668;2023-05-23T03:56:27;100088.16;;;19.95;66.47
15267;BME280;7735;49.144;8.668;2023-05-23T03:58:53;100091.63;;;19.97;66.61
15267;BME280;7735;49.144;8.668;2023-05-23T04:01:20;100095.03;;;19.99;66.32
15267;BME280;7735;49.144;8.668;2023-05-23T04:03:48;100094.13;;;20.00;66.36
15267;BME280;7735;49.144;8.668;2023-05-23T04:06:15;100095.81;;;20.01;66.50
15267;BME280;7735;49.144;8.668;2023-05-23T04:08:42;100101.88;;;20.03;66.38
15267;BME280;7735;49.144;8.668;2023-05-23T04:11:09;100107.03;;;20.06;66.47
15267;BME280;7735;49.144;8.668;2023-05-23T04:13:36;100100.81;;;20.07;66.30
15267;BME280;7735;49.144;8.668;2023-05-23T04:16:03;100110.47;;;20.08;66.20
15267;BME280;7735;49.144;8.668;2023-05-23T04:18:30;100100.06;;;20.05;66.29
15267;BME280;7735;49.144;8.668;2023-05-23T04:20:59;100107.16;;;20.03;66.26
15267;BME280;7735;49.144;8.668;2023-05-23T04:23:25;100103.75;;;20.01;66.42
15267;BME280;7735;49.144;8.668;2023-05-23T04:25:52;100102.03;;;20.00;66.44
15267;BME280;7735;49.144;8.668;2023-05-23T04:28:19;100101.97;;;20.02;66.28
15267;BME280;7735;49.144;8.668;2023-05-23T04:30:46;100102.75;;;20.04;66.49
15267;BME280;7735;49.144;8.668;2023-05-23T04:33:13;100109.69;;;20.06;66.26
15267;BME280;7735;49.144;8.668;2023-05-23T04:35:41;100107.03;;;20.06;66.14
15267;BME280;7735;49.144;8.668;2023-05-23T04:38:10;100121.03;;;20.08;66.10
15267;BME280;7735;49.144;8.668;2023-05-23T04:40:37;100110.47;;;20.08;65.97
15267;BME280;7735;49.144;8.668;2023-05-23T04:43:04;100119.16;;;20.11;65.80
15267;BME280;7735;49.144;8.668;2023-05-23T04:45:37;100119.16;;;20.11;65.64
15267;BME280;7735;49.144;8.668;2023-05-23T04:48:05;100127.25;;;20.07;65.45
15267;BME280;7735;49.144;8.668;2023-05-23T04:50:32;100116.75;;;20.06;65.55
15267;BME280;7735;49.144;8.668;2023-05-23T04:53:00;100124.63;;;20.07;65.56
15267;BME280;7735;49.144;8.668;2023-05-23T04:55:28;100133.41;;;20.08;65.52
15267;BME280;7735;49.144;8.668;2023-05-23T04:57:54;100135.19;;;20.07;65.55
15267;BME280;7735;49.144;8.668;2023-05-23T05:00:21;100124.63;;;20.07;65.36
15267;BME280;7735;49.144;8.668;2023-05-23T05:02:47;100136.91;;;20.08;65.45
15267;BME280;7735;49.144;8.668;2023-05-23T05:05:14;100136.81;;;20.10;65.30
15267;BME280;7735;49.144;8.668;2023-05-23T05:07:41;100137.53;;;20.14;65.38
15267;BME280;7735;49.144;8.668;2023-05-23T05:10:09;100136.63;;;20.15;65.20
15267;BME280;7735;49.144;8.668;2023-05-23T05:12:42;100132.09;;;20.17;65.09
15267;BME280;7735;49.144;8.668;2023-05-23T05:15:10;100134.59;;;20.20;64.77
15267;BME280;7735;49.144;8.668;2023-05-23T05:17:37;100141.75;;;20.18;64.62
15267;BME280;7735;49.144;8.668;2023-05-23T05:20:04;100142.69;;;20.17;64.52
15267;BME280;7735;49.144;8.668;2023-05-23T05:22:33;100139.09;;;20.18;64.16
15267;BME280;7735;49.144;8.668;2023-05-23T05:25:14;100146.09;;;20.19;63.93
15267;BME280;7735;49.144;8.668;2023-05-23T05:27:43;100162.03;;;20.17;63.67
15267;BME280;7735;49.144;8.668;2023-05-23T05:30:10;100161.31;;;20.14;63.60
15267;BME280;7735;49.144;8.668;2023-05-23T05:32:37;100167.59;;;20.11;63.43
15267;BME280;7735;49.144;8.668;2023-05-23T05:35:04;100161.31;;;20.14;63.20
15267;BME280;7735;49.144;8.668;2023-05-23T05:37:32;100166.47;;;20.17;63.06
15267;BME280;7735;49.144;8.668;2023-05-23T05:39:58;100166.69;;;20.12;62.73
15267;BME280;7735;49.144;8.668;2023-05-23T05:42:30;100168.78;;;20.05;62.84
15267;BME280;7735;49.144;8.668;2023-05-23T05:44:58;100161.91;;;20.01;62.78
15267;BME280;7735;49.144;8.668;2023-05-23T05:47:25;100163.59;;;20.02;62.54
15267;BME280;7735;49.144;8.668;2023-05-23T05:49:51;100174.19;;;20.02;62.48
15267;BME280;7735;49.144;8.668;2023-05-23T05:52:18;100171.41;;;20.05;62.22
15267;BME280;7735;49.144;8.668;2023-05-23T05:54:44;100175.69;;;20.08;62.02
15267;BME280;7735;49.144;8.668;2023-05-23T05:57:11;100177.47;;;20.07;61.86
15267;BME280;7735;49.144;8.668;2023-05-23T05:59:38;100186.19;;;20.09;61.88
15267;BME280;7735;49.144;8.668;2023-05-23T06:02:06;100194.19;;;20.08;61.49
15267;BME280;7735;49.144;8.668;2023-05-23T06:04:33;100192.75;;;20.01;61.14
15267;BME280;7735;49.144;8.668;2023-05-23T06:07:00;100191.03;;;20.00;61.17
15267;BME280;7735;49.144;8.668;2023-05-23T06:09:26;100193.47;;;20.04;60.98
15267;BME280;7735;49.144;8.668;2023-05-23T06:11:53;100194.53;;;20.00;60.68
15267;BME280;7735;49.144;8.668;2023-05-23T06:14:19;100208.88;;;19.95;60.55
15267;BME280;7735;49.144;8.668;2023-05-23T06:16:46;100211.59;;;19.93;60.35
15267;BME280;7735;49.144;8.668;2023-05-23T06:19:14;100217.16;;;19.87;60.20
15267;BME280;7735;49.144;8.668;2023-05-23T06:21:40;100219.31;;;19.79;60.34
15267;BME280;7735;49.144;8.668;2023-05-23T06:24:07;100214.03;;;19.79;60.22
15267;BME280;7735;49.144;8.668;2023-05-23T06:26:34;100217.44;;;19.81;60.25
15267;BME280;7735;49.144;8.668;2023-05-23T06:29:01;100231.59;;;19.80;59.91
15267;BME280;7735;49.144;8.668;2023-05-23T06:31:28;100234.56;;;19.72;59.65
15267;BME280;7735;49.144;8.668;2023-05-23T06:33:55;100226.97;;;19.65;59.60
15267;BME280;7735;49.144;8.668;2023-05-23T06:36:23;100232.50;;;19.59;59.54
15267;BME280;7735;49.144;8.668;2023-05-23T06:38:49;100242.16;;;19.60;59.35
15267;BME280;7735;49.144;8.668;2023-05-23T06:41:16;100246.66;;;19.58;59.40
15267;BME280;7735;49.144;8.668;2023-05-23T06:43:42;100243.94;;;19.59;59.41
15267;BME280;7735;49.144;8.668;2023-05-23T06:46:09;100247.50;;;19.58;59.14
15267;BME280;7735;49.144;8.668;2023-05-23T06:48:35;100251.06;;;19.57;59.20
15267;BME280;7735;49.144;8.668;2023-05-23T06:51:02;100250.16;;;19.58;59.32
15267;BME280;7735;49.144;8.668;2023-05-23T06:53:30;100256.97;;;19.64;59.15
15267;BME280;7735;49.144;8.668;2023-05-23T06:55:57;100251.53;;;19.67;58.96
15267;BME280;7735;49.144;8.668;2023-05-23T06:58:24;100258.41;;;19.71;58.90
15267;BME280;7735;49.144;8.668;2023-05-23T07:00:51;100255.63;;;19.74;58.47
15267;BME280;7735;49.144;8.668;2023-05-23T07:03:17;100258.28;;;19.74;58.56
15267;BME280;7735;49.144;8.668;2023-05-23T07:05:44;100260.91;;;19.74;58.40
15267;BME280;7735;49.144;8.668;2023-05-23T07:08:11;100263.56;;;19.74;58.27
15267;BME280;7735;49.144;8.668;2023-05-23T07:10:39;100256.28;;;19.79;58.31
15267;BME280;7735;49.144;8.668;2023-05-23T07:13:06;100271.06;;;19.83;58.37
15267;BME280;7735;49.144;8.668;2023-05-23T07:15:33;100273.56;;;19.86;58.29
15267;BME280;7735;49.144;8.668;2023-05-23T07:17:59;100276.09;;;19.89;58.17
15267;BME280;7735;49.144;8.668;2023-05-23T07:20:26;100281.16;;;19.94;58.06
15267;BME280;7735;49.144;8.668;2023-05-23T07:22:52;100288.16;;;19.95;57.92
15267;BME280;7735;49.144;8.668;2023-05-23T07:25:19;100288.31;;;19.92;57.77
15267;BME280;7735;49.144;8.668;2023-05-23T07:27:49;100296.31;;;19.90;57.64
15267;BME280;7735;49.144;8.668;2023-05-23T07:30:16;100292.06;;;19.86;57.78
15267;BME280;7735;49.144;8.668;2023-05-23T07:32:44;100284.34;;;19.82;57.90
15267;BME280;7735;49.144;8.668;2023-05-23T07:35:12;100297.81;;;19.75;57.46
15267;BME280;7735;49.144;8.668;2023-05-23T07:37:39;100296.44;;;19.67;57.18
15267;BME280;7735;49.144;8.668;2023-05-23T07:40:06;100294.97;;;19.60;56.60
15267;BME280;7735;49.144;8.668;2023-05-23T07:42:34;100291.47;;;19.59;56.67
15267;BME280;7735;49.144;8.668;2023-05-23T07:45:03;100303.66;;;19.63;56.32
15267;BME280;7735;49.144;8.668;2023-05-23T07:47:30;100298.38;;;19.63;56.16
15267;BME280;7735;49.144;8.668;2023-05-23T07:49:56;100306.22;;;19.65;56.00
15267;BME280;7735;49.144;8.668;2023-05-23T07:52:23;100298.38;;;19.63;55.76
15267;BME280;7735;49.144;8.668;2023-05-23T07:54:49;100302.78;;;19.63;55.40
15267;BME280;7735;49.144;8.668;2023-05-23T07:57:16;100307.25;;;19.61;55.22
15267;BME280;7735;49.144;8.668;2023-05-23T07:59:43;100304.84;;;19.55;55.15
15267;BME280;7735;49.144;8.668;2023-05-23T08:02:11;100308.69;;;19.47;55.23
15267;BME280;7735;49.144;8.668;2023-05-23T08:04:37;100306.97;;;19.46;55.61
15267;BME280;7735;49.144;8.668;2023-05-23T08:07:05;100300.06;;;19.42;55.44
15267;BME280;7735;49.144;8.668;2023-05-23T08:09:32;100305.25;;;19.45;55.77
15267;BME280;7735;49.144;8.668;2023-05-23T08:11:59;100301.38;;;19.54;55.49
15267;BME280;7735;49.144;8.668;2023-05-23T08:14:26;100306.34;;;19.62;55.74
15267;BME280;7735;49.144;8.668;2023-05-23T08:16:53;100303.66;;;19.63;55.68
15267;BME280;7735;49.144;8.668;2023-05-23T08:19:21;100300.78;;;19.68;55.81
15267;BME280;7735;49.144;8.668;2023-05-23T08:21:47;100313.94;;;19.69;55.77
15267;BME280;7735;49.144;8.668;2023-05-23T08:24:14;100304.22;;;19.70;56.00
15267;BME280;7735;49.144;8.668;2023-05-23T08:26:40;100304.09;;;19.73;55.86
15267;BME280;7735;49.144;8.668;2023-05-23T08:29:07;100305.69;;;19.77;56.04
15267;BME280;7735;49.144;8.668;2023-05-23T08:31:34;100309.00;;;19.82;55.75
15267;BME280;7735;49.144;8.668;2023-05-23T08:34:01;100313.22;;;19.86;55.67
15267;BME280;7735;49.144;8.668;2023-05-23T08:36:29;100325.84;;;19.79;55.36
15267;BME280;7735;49.144;8.668;2023-05-23T08:38:58;100317.44;;;19.70;55.72
15267;BME280;7735;49.144;8.668;2023-05-23T08:41:25;100326.44;;;19.66;56.01
15267;BME280;7735;49.144;8.668;2023-05-23T08:43:52;100320.22;;;19.67;55.98
15267;BME280;7735;49.144;8.668;2023-05-23T08:46:19;100321.00;;;19.69;56.31
15267;BME280;7735;49.144;8.668;2023-05-23T08:48:50;100318.78;;;19.80;56.32
15267;BME280;7735;49.144;8.668;2023-05-23T08:51:20;100321.41;;;20.00;55.69
15267;BME280;7735;49.144;8.668;2023-05-23T08:53:48;100318.13;;;20.14;54.95
15267;BME280;7735;49.144;8.668;2023-05-23T08:56:18;100317.94;;;20.19;54.66
15267;BME280;7735;49.144;8.668;2023-05-23T08:58:45;100320.66;;;20.17;54.62
15267;BME280;7735;49.144;8.668;2023-05-23T09:01:13;100320.53;;;20.20;54.70
15267;BME280;7735;49.144;8.668;2023-05-23T09:03:42;100321.19;;;20.25;54.37
15267;BME280;7735;49.144;8.668;2023-05-23T09:06:09;100322.81;;;20.28;53.74
15267;BME280;7735;49.144;8.668;2023-05-23T09:08:37;100330.56;;;20.32;53.36
15267;BME280;7735;49.144;8.668;2023-05-23T09:11:05;100326.13;;;20.33;53.19
15267;BME280;7735;49.144;8.668;2023-05-23T09:13:33;100328.47;;;20.39;53.21
15267;BME280;7735;49.144;8.668;2023-05-23T09:16:03;100339.75;;;20.44;52.99
15267;BME280;7735;49.144;8.668;2023-05-23T09:18:32;100328.41;;;20.41;53.25
15267;BME280;7735;49.144;8.668;2023-05-23T09:21:00;100337.22;;;20.41;53.33
15267;BME280;7735;49.144;8.668;2023-05-23T09:23:29;100340.63;;;20.45;53.36
15267;BME280;7735;49.144;8.668;2023-05-23T09:25:56;100332.78;;;20.42;53.02
15267;BME280;7735;49.144;8.668;2023-05-23T09:28:24;100342.50;;;20.41;53.04
15267;BME280;7735;49.144;8.668;2023-05-23T09:30:57;100343.41;;;20.40;52.85
15267;BME280;7735;49.144;8.668;2023-05-23T09:33:28;100334.69;;;20.38;52.57
15267;BME280;7735;49.144;8.668;2023-05-23T09:35:55;100347.00;;;20.39;52.34
15267;BME280;7735;49.144;8.668;2023-05-23T09:38:23;100344.03;;;20.47;52.16
15267;BME280;7735;49.144;8.668;2023-05-23T09:40:53;100339.34;;;20.53;52.12
15267;BME280;7735;49.144;8.668;2023-05-23T09:43:23;100342.69;;;20.57;51.84
15267;BME280;7735;49.144;8.668;2023-05-23T09:45:52;100341.63;;;20.61;51.50
15267;BME280;7735;49.144;8.668;2023-05-23T09:48:26;100345.28;;;20.58;51.28
15267;BME280;7735;49.144;8.668;2023-05-23T09:50:54;100333.03;;;20.56;50.98
15267;BME280;7735;49.144;8.668;2023-05-23T09:53:22;100337.47;;;20.55;51.11
15267;BME280;7735;49.144;8.668;2023-05-23T09:55:50;100344.34;;;20.59;50.89
15267;BME280;7735;49.144;8.668;2023-05-23T09:58:18;100338.22;;;20.59;50.64
15267;BME280;7735;49.144;8.668;2023-05-23T10:00:47;100339.34;;;20.53;50.47
15267;BME280;7735;49.144;8.668;2023-05-23T10:03:16;100340.38;;;20.49;50.57
15267;BME280;7735;49.144;8.668;2023-05-23T10:05:47;100355.47;;;20.47;50.75
15267;BME280;7735;49.144;8.668;2023-05-23T10:08:17;100345.03;;;20.44;50.82
15267;BME280;7735;49.144;8.668;2023-05-23T10:13:48;100346.34;;;20.54;50.77
15267;BME280;7735;49.144;8.668;2023-05-23T10:16:18;100343.34;;;20.62;50.75
15267;BME280;7735;49.144;8.668;2023-05-23T10:18:51;100335.69;;;20.75;50.31
15267;BME280;7735;49.144;8.668;2023-05-23T10:21:24;100335.91;;;20.89;50.35
15267;BME280;7735;49.144;8.668;2023-05-23T10:23:57;100338.78;;;21.03;50.06
15267;BME280;7735;49.144;8.668;2023-05-23T10:26:25;100335.72;;;21.11;49.58
15267;BME280;7735;49.144;8.668;2023-05-23T10:28:53;100333.03;;;21.12;49.37
15267;BME280;7735;49.144;8.668;2023-05-23T10:31:22;100340.16;;;21.10;49.24
15267;BME280;7735;49.144;8.668;2023-05-23T10:33:51;100339.75;;;21.01;49.55
15267;BME280;7735;49.144;8.668;2023-05-23T10:36:26;100334.25;;;21.05;49.56
15267;BME280;7735;49.144;8.668;2023-05-23T10:38:59;100328.59;;;21.13;49.26
15267;BME280;7735;49.144;8.668;2023-05-23T10:41:31;100331.72;;;21.21;49.01
15267;BME280;7735;49.144;8.668;2023-05-23T10:44:05;100331.66;;;21.23;49.09
15267;BME280;7735;49.144;8.668;2023-05-23T10:46:53;100334.03;;;21.46;48.50
15267;BME280;7735;49.144;8.668;2023-05-23T10:49:20;100332.13;;;21.67;48.27
15267;BME280;7735;49.144;8.668;2023-05-23T10:51:48;100332.91;;;21.69;48.14
15267;BME280;7735;49.144;8.668;2023-05-23T10:54:17;100335.25;;;21.58;48.22
15267;BME280;7735;49.144;8.668;2023-05-23T10:56:44;100336.41;;;21.52;48.55
15267;BME280;7735;49.144;8.668;2023-05-23T10:59:19;100343.56;;;21.50;48.69
15267;BME280;7735;49.144;8.668;2023-05-23T11:01:49;100340.16;;;21.48;48.62
15267;BME280;7735;49.144;8.668;2023-05-23T11:04:24;100332.25;;;21.46;48.40
15267;BME280;7735;49.144;8.668;2023-05-23T11:06:52;100332.50;;;21.42;48.91
15267;BME280;7735;49.144;8.668;2023-05-23T11:09:20;100330.53;;;21.45;48.75
15267;BME280;7735;49.144;8.668;2023-05-23T11:12:07;100336.41;;;21.52;48.73
15267;BME280;7735;49.144;8.668;2023-05-23T11:14:53;100333.81;;;21.51;48.68
15267;BME280;7735;49.144;8.668;2023-05-23T11:17:30;100332.19;;;21.48;48.69
15267;BME280;7735;49.144;8.668;2023-05-23T11:20:02;100333.13;;;21.47;48.95
15267;BME280;7735;49.144;8.668;2023-05-23T11:22:31;100337.41;;;21.49;48.87
15267;BME280;7735;49.144;8.668;2023-05-23T11:24:58;100330.16;;;21.53;48.59
15267;BME280;7735;49.144;8.668;2023-05-23T11:27:26;100332.66;;;21.56;48.47
15267;BME280;7735;49.144;8.668;2023-05-23T11:29:57;100342.34;;;21.57;48.39
15267;BME280;7735;49.144;8.668;2023-05-23T11:32:27;100341.31;;;21.60;48.34
15267;BME280;7735;49.144;8.668;2023-05-23T11:34:54;100334.13;;;21.62;48.26
15267;BME280;7735;49.144;8.668;2023-05-23T11:37:22;100338.81;;;21.57;48.20
15267;BME280;7735;49.144;8.668;2023-05-23T11:39:49;100341.00;;;21.48;48.61
15267;BME280;7735;49.144;8.668;2023-05-23T11:42:18;100346.66;;;21.41;49.08
15267;BME280;7735;49.144;8.668;2023-05-23T11:44:47;100336.53;;;21.32;49.67
15267;BME280;7735;49.144;8.668;2023-05-23T11:47:19;100343.03;;;21.25;49.86
15267;BME280;7735;49.144;8.668;2023-05-23T11:53:21;100338.63;;;21.06;50.50
15267;BME280;7735;49.144;8.668;2023-05-23T11:56:08;100337.91;;;21.03;50.51
15267;BME280;7735;49.144;8.668;2023-05-23T11:58:47;100332.75;;;21.00;50.76
15267;BME280;7735;49.144;8.668;2023-05-23T12:01:28;100332.66;;;21.01;50.70
15267;BME280;7735;49.144;8.668;2023-05-23T12:07:18;100342.03;;;21.08;50.58
15267;BME280;7735;49.144;8.668;2023-05-23T12:09:46;100337.69;;;21.07;50.52
15267;BME280;7735;49.144;8.668;2023-05-23T12:18:43;100341.91;;;20.92;50.01
15267;BME280;7735;49.144;8.668;2023-05-23T12:21:10;100333.19;;;20.90;50.03
15267;BME280;7735;49.144;8.668;2023-05-23T12:23:38;100335.63;;;20.95;50.23
15267;BME280;7735;49.144;8.668;2023-05-23T12:26:06;100326.31;;;21.05;50.05
15267;BME280;7735;49.144;8.668;2023-05-23T12:28:36;100331.00;;;21.17;49.96
15267;BME280;7735;49.144;8.668;2023-05-23T12:31:15;100327.84;;;21.28;50.01
15267;BME280;7735;49.144;8.668;2023-05-23T12:33:43;100328.41;;;21.35;50.05
15267;BME280;7735;49.144;8.668;2023-05-23T12:36:12;100328.91;;;21.43;49.64
15267;BME280;7735;49.144;8.668;2023-05-23T12:38:39;100332.13;;;21.49;49.73
15267;BME280;7735;49.144;8.668;2023-05-23T12:41:14;100328.38;;;21.54;49.54
15267;BME280;7735;49.144;8.668;2023-05-23T12:43:48;100326.72;;;21.51;49.50
15267;BME280;7735;49.144;8.668;2023-05-23T12:46:15;100321.25;;;21.37;49.78
15267;BME280;7735;49.144;8.668;2023-05-23T12:48:42;100325.09;;;21.31;50.05
15267;BME280;7735;49.144;8.668;2023-05-23T12:51:08;100323.41;;;21.29;50.27
15267;BME280;7735;49.144;8.668;2023-05-23T12:53:35;100326.28;;;21.24;50.23
15267;BME280;7735;49.144;8.668;2023-05-23T12:56:02;100326.44;;;21.21;50.46
15267;BME280;7735;49.144;8.668;2023-05-23T12:58:30;100318.41;;;21.23;50.64
15267;BME280;7735;49.144;8.668;2023-05-23T13:00:58;100326.28;;;21.24;50.47
15267;BME280;7735;49.144;8.668;2023-05-23T13:03:25;100317.13;;;21.31;50.15
15267;BME280;7735;49.144;8.668;2023-05-23T13:05:51;100322.97;;;21.38;50.16
15267;BME280;7735;49.144;8.668;2023-05-23T13:08:18;100318.59;;;21.37;49.86
15267;BME280;7735;49.144;8.668;2023-05-23T13:10:45;100316.50;;;21.43;50.09
15267;BME280;7735;49.144;8.668;2023-05-23T13:13:12;100321.59;;;21.48;49.90
15267;BME280;7735;49.144;8.668;2023-05-23T13:15:40;100313.50;;;21.51;49.28
15267;BME280;7735;49.144;8.668;2023-05-23T13:18:07;100318.22;;;21.62;48.83
15267;BME280;7735;49.144;8.668;2023-05-23T13:20:34;100311.63;;;21.70;48.49
15267;BME280;7735;49.144;8.668;2023-05-23T13:23:00;100312.06;;;21.78;48.34